Time;durP1;ratioP1;P1;durP2;ratioP2;P2;SDS_P1;SDS_P2;PMS_P1;PMS_P2;Temp;Humidity;BMP_temperature;BMP_pressure;BME280_temperature;BME280_humidity;BME280_pressure;Samples;Min_cycle;Max_cycle;Signal;HPM_P1;HPM_P2
2021/12/06 00:00:15;;;;;;;11.38;7.97;;;;;;;-140.79;100.00;63287.88;5042001;28;20033;-51
2021/12/06 00:02:41;;;;;;;11.55;7.82;;;;;;;-140.79;100.00;63287.88;5039840;28;20106;-52
2021/12/06 00:05:07;;;;;;;11.95;8.48;;;;;;;-140.79;100.00;63287.88;5042291;28;20535;-50
2021/12/06 00:07:32;;;;;;;12.52;8.65;;;;;;;-140.79;100.00;63287.88;5045161;28;20122;-53
2021/12/06 00:09:58;;;;;;;11.52;8.18;;;;;;;-140.79;100.00;63287.88;5045405;28;20090;-53
2021/12/06 00:12:23;;;;;;;11.02;7.65;;;;;;;-140.79;100.00;63287.88;5043999;28;20045;-52
2021/12/06 00:14:49;;;;;;;11.95;8.43;;;;;;;-140.79;100.00;63287.88;5045526;28;20041;-52
2021/12/06 00:17:15;;;;;;;11.65;7.82;;;;;;;-140.79;100.00;63287.88;5045640;28;20048;-53
2021/12/06 00:19:41;;;;;;;10.07;7.60;;;;;;;-140.79;100.00;63287.88;5044568;28;20036;-52
2021/12/06 00:22:09;;;;;;;11.20;8.02;;;;;;;-140.79;100.00;63287.88;5044980;28;20033;-52
2021/12/06 00:24:34;;;;;;;12.57;8.93;;;;;;;-140.79;100.00;63287.88;5045021;28;20530;-53
2021/12/06 00:27:00;;;;;;;13.18;8.63;;;;;;;-140.79;100.00;63287.88;5045202;28;20032;-52
2021/12/06 00:29:25;;;;;;;11.15;8.38;;;;;;;-140.79;100.00;63287.88;5045155;28;20025;-50
2021/12/06 00:31:52;;;;;;;13.30;9.18;;;;;;;-140.79;100.00;63287.88;5045749;28;20056;-53
2021/12/06 00:34:18;;;;;;;13.55;9.15;;;;;;;-140.79;100.00;63287.88;5045401;28;20032;-52
2021/12/06 00:36:53;;;;;;;12.65;9.07;;;;;;;-140.79;100.00;63287.88;5043019;28;20068;-52
2021/12/06 00:39:18;;;;;;;11.57;8.45;;;;;;;-140.79;100.00;63287.88;5045040;28;20040;-51
2021/12/06 00:41:44;;;;;;;13.93;9.10;;;;;;;-140.79;100.00;63287.88;5045312;28;20043;-51
2021/12/06 00:44:09;;;;;;;11.30;8.48;;;;;;;-140.79;100.00;63287.88;5045418;28;20114;-53
2021/12/06 00:46:37;;;;;;;12.30;8.80;;;;;;;-140.79;100.00;63287.88;5044936;28;20399;-54
2021/12/06 00:49:03;;;;;;;13.23;9.38;;;;;;;-140.79;100.00;63287.88;5044909;28;20638;-54
2021/12/06 00:51:28;;;;;;;12.55;8.75;;;;;;;-140.79;100.00;63287.88;5044913;28;20651;-54
2021/12/06 00:53:54;;;;;;;11.82;8.32;;;;;;;-140.79;100.00;63287.88;5044828;28;20423;-54
2021/12/06 00:56:19;;;;;;;12.80;8.80;;;;;;;-140.79;100.00;63287.88;5044882;28;20029;-54
2021/12/06 00:58:45;;;;;;;13.02;9.32;;;;;;;-140.79;100.00;63287.88;5043971;28;20203;-54
2021/12/06 01:01:10;;;;;;;12.63;8.63;;;;;;;-140.79;100.00;63287.88;5044809;28;20492;-52
2021/12/06 01:03:37;;;;;;;13.43;9.38;;;;;;;-140.79;100.00;63287.88;5044706;28;20397;-54
2021/12/06 01:06:03;;;;;;;11.55;8.70;;;;;;;-140.79;100.00;63287.88;5043807;28;20057;-55
2021/12/06 01:08:28;;;;;;;12.27;8.95;;;;;;;-140.79;100.00;63287.88;5043275;28;20067;-54
2021/12/06 01:10:54;;;;;;;12.38;8.55;;;;;;;-140.79;100.00;63287.88;5044389;28;20053;-54
2021/12/06 01:13:20;;;;;;;14.15;8.88;;;;;;;-140.79;100.00;63287.88;5045928;28;20037;-53
2021/12/06 01:15:45;;;;;;;12.88;8.73;;;;;;;-140.79;100.00;63287.88;5048006;28;20037;-52
2021/12/06 01:18:13;;;;;;;12.38;8.38;;;;;;;-140.79;100.00;63287.88;5048145;28;20067;-53
2021/12/06 01:20:44;;;;;;;13.00;9.20;;;;;;;-140.79;100.00;63287.88;5047105;28;20032;-54
2021/12/06 01:23:13;;;;;;;11.93;8.77;;;;;;;-140.79;100.00;63287.88;5043622;28;20041;-54
2021/12/06 01:28:36;;;;;;;13.07;9.20;;;;;;;-140.79;100.00;63287.88;5043324;28;20036;-54
2021/12/06 01:31:21;;;;;;;13.48;8.77;;;;;;;-140.79;100.00;63287.88;5044376;28;20055;-54
2021/12/06 01:39:25;;;;;;;11.52;8.60;;;;;;;-140.79;100.00;63287.88;5020862;28;20041;-54
2021/12/06 01:41:58;;;;;;;13.07;9.13;;;;;;;-140.79;100.00;63287.88;5043919;28;20090;-54
2021/12/06 01:44:40;;;;;;;12.75;8.68;;;;;;;-140.79;100.00;63287.88;5047121;28;20128;-54
2021/12/06 01:47:08;;;;;;;11.63;8.68;;;;;;;-140.79;100.00;63287.88;5049993;28;20111;-56
2021/12/06 01:49:48;;;;;;;12.68;8.93;;;;;;;-140.79;100.00;63287.88;5051000;28;20119;-53
2021/12/06 01:52:23;;;;;;;12.00;8.85;;;;;;;-140.79;100.00;63287.88;5051035;28;20435;-54
2021/12/06 01:54:49;;;;;;;12.48;8.65;;;;;;;-140.79;100.00;63287.88;5050410;28;20355;-56
2021/12/06 01:57:14;;;;;;;12.77;9.05;;;;;;;-140.79;100.00;63287.88;5047109;28;20044;-55
2021/12/06 01:59:40;;;;;;;12.82;9.10;;;;;;;-140.79;100.00;63287.88;5046027;28;20104;-54
2021/12/06 02:02:06;;;;;;;12.52;8.93;;;;;;;-140.79;100.00;63287.88;5060792;28;20033;-53
2021/12/06 02:04:32;;;;;;;12.93;9.25;;;;;;;-140.79;100.00;63287.88;5044622;28;20027;-56
2021/12/06 02:06:58;;;;;;;11.93;8.75;;;;;;;-140.79;100.00;63287.88;5044305;28;20090;-54
2021/12/06 02:09:26;;;;;;;12.95;9.27;;;;;;;-140.79;100.00;63287.88;5044240;28;20491;-55
2021/12/06 02:11:52;;;;;;;12.40;8.90;;;;;;;-140.79;100.00;63287.88;5043962;28;20502;-55
2021/12/06 02:19:29;;;;;;;12.38;9.02;;;;;;;-140.79;100.00;63287.88;5043461;28;20086;-53
2021/12/06 02:21:55;;;;;;;13.32;9.23;;;;;;;-140.79;100.00;63287.88;5043989;28;20561;-54
2021/12/06 02:24:20;;;;;;;14.35;10.25;;;;;;;-140.79;100.00;63287.88;5044128;28;20032;-53
2021/12/06 02:26:46;;;;;;;12.98;9.00;;;;;;;-140.79;100.00;63287.88;5043880;28;20040;-53
2021/12/06 02:29:11;;;;;;;12.30;9.20;;;;;;;-140.79;100.00;63287.88;5042667;28;20033;-53
2021/12/06 02:31:37;;;;;;;13.27;8.88;;;;;;;-140.79;100.00;63287.88;5043018;28;20032;-53
2021/12/06 02:34:03;;;;;;;13.52;9.40;;;;;;;-140.79;100.00;63287.88;5043168;28;20037;-53
2021/12/06 02:36:29;;;;;;;11.70;8.63;;;;;;;-140.79;100.00;63287.88;5041769;28;20032;-54
2021/12/06 02:38:54;;;;;;;12.40;8.82;;;;;;;-140.79;100.00;63287.88;5042498;28;20052;-52
2021/12/06 02:41:20;;;;;;;12.07;8.90;;;;;;;-140.79;100.00;63287.88;5042359;28;20025;-53
2021/12/06 02:43:46;;;;;;;11.77;8.80;;;;;;;-140.79;100.00;63287.88;5042470;28;20697;-53
2021/12/06 02:46:12;;;;;;;11.57;8.80;;;;;;;-140.79;100.00;63287.88;5043119;28;20032;-54
2021/12/06 02:48:38;;;;;;;12.60;9.07;;;;;;;-140.79;100.00;63287.88;5042903;28;20032;-54
2021/12/06 02:51:04;;;;;;;11.68;8.70;;;;;;;-140.79;100.00;63287.88;5042530;28;20045;-53
2021/12/06 02:53:35;;;;;;;12.77;8.93;;;;;;;-140.79;100.00;63287.88;5042325;28;20132;-54
2021/12/06 02:56:04;;;;;;;11.65;8.18;;;;;;;-140.79;100.00;63287.88;5042708;28;20017;-53
2021/12/06 03:01:05;;;;;;;13.05;9.02;;;;;;;-140.79;100.00;63287.88;5042421;28;20131;-53
2021/12/06 03:03:30;;;;;;;;;;;;;;;-140.79;100.00;63287.88;5041521;28;20187;-53
2021/12/06 03:05:56;;;;;;;11.80;8.20;;;;;;;-140.79;100.00;63287.88;5042453;28;20007;-54
2021/12/06 03:08:40;;;;;;;12.68;8.68;;;;;;;-140.79;100.00;63287.88;5042098;28;20044;-54
2021/12/06 03:11:08;;;;;;;12.75;8.60;;;;;;;-140.79;100.00;63287.88;5042297;28;20059;-54
2021/12/06 03:13:33;;;;;;;11.60;8.57;;;;;;;-140.79;100.00;63287.88;5041785;28;20055;-52
2021/12/06 03:15:59;;;;;;;12.35;8.82;;;;;;;-140.79;100.00;63287.88;5042346;28;20116;-53
2021/12/06 03:18:24;;;;;;;12.40;8.35;;;;;;;-140.79;100.00;63287.88;5041892;28;20102;-52
2021/12/06 03:20:50;;;;;;;11.88;8.52;;;;;;;-140.79;100.00;63287.88;5042178;28;20040;-53
2021/12/06 03:23:15;;;;;;;12.48;8.73;;;;;;;-140.79;100.00;63287.88;5042558;28;20493;-54
2021/12/06 03:25:40;;;;;;;12.85;9.30;;;;;;;-140.79;100.00;63287.88;5042353;28;20041;-53
2021/12/06 03:28:06;;;;;;;12.13;8.75;;;;;;;-140.79;100.00;63287.88;5042260;28;20040;-53
2021/12/06 03:30:31;;;;;;;12.10;8.35;;;;;;;-140.79;100.00;63287.88;5041837;28;20681;-54
2021/12/06 03:32:57;;;;;;;12.10;8.60;;;;;;;-140.79;100.00;63287.88;5042191;28;20135;-53
2021/12/06 03:35:22;;;;;;;12.52;9.02;;;;;;;-140.79;100.00;63287.88;5040594;28;20111;-54
2021/12/06 03:37:48;;;;;;;11.93;8.85;;;;;;;-140.79;100.00;63287.88;5042293;28;20486;-54
2021/12/06 03:40:13;;;;;;;12.10;8.50;;;;;;;-140.79;100.00;63287.88;5040603;28;20538;-54
2021/12/06 03:42:38;;;;;;;11.80;8.70;;;;;;;-140.79;100.00;63287.88;5060863;28;20512;-51
2021/12/06 03:45:06;;;;;;;12.80;8.63;;;;;;;-140.79;100.00;63287.88;5045876;28;20431;-54
2021/12/06 03:47:32;;;;;;;11.32;7.95;;;;;;;-140.79;100.00;63287.88;5045470;28;20033;-54
2021/12/06 03:49:57;;;;;;;12.38;8.80;;;;;;;-140.79;100.00;63287.88;5044394;28;20095;-53
2021/12/06 03:52:23;;;;;;;11.95;8.95;;;;;;;-140.79;100.00;63287.88;5045551;28;20509;-53
2021/12/06 03:54:49;;;;;;;10.93;8.52;;;;;;;-140.79;100.00;63287.88;5045252;28;20047;-51
2021/12/06 03:57:14;;;;;;;12.00;8.80;;;;;;;-140.79;100.00;63287.88;5045630;28;20040;-54
2021/12/06 03:59:40;;;;;;;11.30;8.07;;;;;;;-140.79;100.00;63287.88;5045316;28;20127;-54
2021/12/06 04:02:06;;;;;;;11.30;8.10;;;;;;;-140.79;100.00;63287.88;5045635;28;20033;-53
2021/12/06 04:04:31;;;;;;;10.73;8.02;;;;;;;-140.79;100.00;63287.88;5045240;28;20044;-53
2021/12/06 04:06:57;;;;;;;11.32;7.90;;;;;;;-140.79;100.00;63287.88;5045399;28;20518;-53
2021/12/06 04:09:22;;;;;;;12.10;8.45;;;;;;;-140.79;100.00;63287.88;5045207;28;20017;-52
2021/12/06 04:11:47;;;;;;;10.68;8.00;;;;;;;-140.79;100.00;63287.88;5045406;28;20099;-53
2021/12/06 04:14:13;;;;;;;12.60;8.57;;;;;;;-140.79;100.00;63287.88;5045357;28;20040;-54
2021/12/06 04:16:39;;;;;;;12.63;8.35;;;;;;;-140.79;100.00;63287.88;5044741;28;20031;-53
2021/12/06 04:19:05;;;;;;;11.57;8.40;;;;;;;-140.79;100.00;63287.88;5044527;28;20055;-54
2021/12/06 04:21:30;;;;;;;10.85;8.18;;;;;;;-140.79;100.00;63287.88;5044178;28;20121;-53
2021/12/06 04:23:56;;;;;;;12.13;8.73;;;;;;;-140.79;100.00;63287.88;5045178;28;20033;-54
2021/12/06 04:26:21;;;;;;;11.30;8.20;;;;;;;-140.79;100.00;63287.88;5045226;28;20514;-53
2021/12/06 04:28:49;;;;;;;12.07;8.50;;;;;;;-140.79;100.00;63287.88;5044703;28;20098;-53
2021/12/06 04:31:18;;;;;;;10.73;7.72;;;;;;;-140.79;100.00;63287.88;5044711;28;20396;-54
2021/12/06 04:33:43;;;;;;;11.10;8.30;;;;;;;-140.79;100.00;63287.88;5044597;28;20032;-54
2021/12/06 04:36:09;;;;;;;13.02;8.65;;;;;;;-140.79;100.00;63287.88;5045011;28;20557;-53
2021/12/06 04:38:34;;;;;;;10.35;7.43;;;;;;;-140.79;100.00;63287.88;5044536;28;20040;-54
2021/12/06 04:41:00;;;;;;;11.65;8.23;;;;;;;-140.79;100.00;63287.88;5044751;28;20037;-53
2021/12/06 04:43:25;;;;;;;10.95;7.75;;;;;;;-140.79;100.00;63287.88;5043537;28;20395;-53
2021/12/06 04:45:50;;;;;;;11.27;7.90;;;;;;;-140.79;100.00;63287.88;5044981;28;20085;-53
2021/12/06 04:48:16;;;;;;;10.55;7.28;;;;;;;-140.79;100.00;63287.88;5044725;28;20029;-54
2021/12/06 04:50:42;;;;;;;10.93;8.52;;;;;;;-140.79;100.00;63287.88;5044219;28;20041;-53
2021/12/06 04:53:14;;;;;;;11.85;8.25;;;;;;;-140.79;100.00;63287.88;5043543;28;20100;-51
2021/12/06 04:55:56;;;;;;;10.90;8.13;;;;;;;-140.79;100.00;63287.88;5043219;28;20013;-55
2021/12/06 04:58:24;;;;;;;11.05;7.97;;;;;;;-140.79;100.00;63287.88;5044277;28;20098;-53
2021/12/06 05:01:01;;;;;;;11.60;8.20;;;;;;;-140.79;100.00;63287.88;5044322;28;20029;-54
2021/12/06 05:03:27;;;;;;;10.65;7.90;;;;;;;-140.79;100.00;63287.88;5044669;28;20036;-53
2021/12/06 05:05:56;;;;;;;11.38;8.40;;;;;;;-140.79;100.00;63287.88;5044617;28;20498;-53
2021/12/06 05:08:25;;;;;;;11.63;7.75;;;;;;;-140.79;100.00;63287.88;5044325;28;20094;-53
2021/12/06 05:10:51;;;;;;;11.20;8.00;;;;;;;-140.79;100.00;63287.88;5044048;28;20053;-53
2021/12/06 05:13:16;;;;;;;10.63;7.88;;;;;;;-140.79;100.00;63287.88;5044601;28;20057;-53
2021/12/06 05:15:43;;;;;;;10.13;7.45;;;;;;;-140.79;100.00;63287.88;5044161;28;20114;-53
2021/12/06 05:18:09;;;;;;;11.60;8.07;;;;;;;-140.79;100.00;63287.88;5042915;28;20573;-53
2021/12/06 05:20:34;;;;;;;10.60;7.70;;;;;;;-140.79;100.00;63287.88;5044045;28;20037;-54
2021/12/06 05:23:00;;;;;;;10.77;7.40;;;;;;;-140.79;100.00;63287.88;5043481;28;20021;-52
2021/12/06 05:25:26;;;;;;;11.82;8.18;;;;;;;-140.79;100.00;63287.88;5044103;28;20502;-51
2021/12/06 05:27:51;;;;;;;10.13;7.28;;;;;;;-140.79;100.00;63287.88;5043830;28;20032;-53
2021/12/06 05:30:20;;;;;;;10.90;7.65;;;;;;;-140.79;100.00;63287.88;5042082;28;20029;-53
2021/12/06 05:32:45;;;;;;;9.95;7.10;;;;;;;-140.79;100.00;63287.88;5043678;28;20033;-53
2021/12/06 05:35:11;;;;;;;10.25;7.35;;;;;;;-140.79;100.00;63287.88;5043817;28;20090;-54
2021/12/06 05:37:42;;;;;;;11.38;7.65;;;;;;;-140.79;100.00;63287.88;5043265;28;20060;-53
2021/12/06 05:40:10;;;;;;;10.57;7.30;;;;;;;-140.79;100.00;63287.88;5043610;28;20415;-54
2021/12/06 05:42:36;;;;;;;10.73;7.70;;;;;;;-140.79;100.00;63287.88;5043544;28;20036;-53
2021/12/06 05:45:02;;;;;;;11.02;7.25;;;;;;;-140.79;100.00;63287.88;5041000;28;20025;-53
2021/12/06 05:47:27;;;;;;;9.23;6.80;;;;;;;-140.79;100.00;63287.88;5036420;28;20044;-53
2021/12/06 05:49:53;;;;;;;10.15;7.28;;;;;;;-140.79;100.00;63287.88;5041492;28;20025;-52
2021/12/06 05:52:18;;;;;;;9.63;6.68;;;;;;;-140.79;100.00;63287.88;5039464;28;20044;-51
2021/12/06 05:54:44;;;;;;;11.43;6.93;;;;;;;-140.79;100.00;63287.88;5041918;28;20055;-54
2021/12/06 05:57:10;;;;;;;9.32;6.80;;;;;;;-140.79;100.00;63287.88;5041289;28;20078;-53
2021/12/06 05:59:36;;;;;;;10.60;7.30;;;;;;;-140.79;100.00;63287.88;5040040;28;20036;-52
2021/12/06 06:02:03;;;;;;;10.77;6.65;;;;;;;-140.79;100.00;63287.88;5042236;28;20481;-54
2021/12/06 06:04:28;;;;;;;10.43;7.28;;;;;;;-140.79;100.00;63287.88;5042400;28;20124;-54
2021/12/06 06:06:54;;;;;;;10.15;6.93;;;;;;;-140.79;100.00;63287.88;5043099;28;20029;-53
2021/12/06 06:09:19;;;;;;;8.95;6.45;;;;;;;-140.79;100.00;63287.88;5043168;28;20033;-54
2021/12/06 06:11:45;;;;;;;10.05;6.95;;;;;;;-140.79;100.00;63287.88;5043226;28;20045;-53
2021/12/06 06:14:10;;;;;;;9.77;6.80;;;;;;;-140.79;100.00;63287.88;5043116;28;20123;-53
2021/12/06 06:16:46;;;;;;;8.57;6.60;;;;;;;-140.79;100.00;63287.88;5042675;28;20044;-53
2021/12/06 06:19:12;;;;;;;8.30;6.00;;;;;;;-140.79;100.00;63287.88;5043168;28;20037;-53
2021/12/06 06:21:37;;;;;;;8.82;6.28;;;;;;;-140.79;100.00;63287.88;5042774;28;20095;-53
2021/12/06 06:24:03;;;;;;;8.38;6.15;;;;;;;-140.79;100.00;63287.88;5042567;28;20526;-54
2021/12/06 06:26:28;;;;;;;7.68;6.13;;;;;;;-140.79;100.00;63287.88;5042948;28;20634;-54
2021/12/06 06:28:54;;;;;;;9.30;5.82;;;;;;;-140.79;100.00;63287.88;5042023;28;20476;-54
2021/12/06 06:31:19;;;;;;;8.02;6.28;;;;;;;-140.79;100.00;63287.88;5042842;28;20858;-52
2021/12/06 06:33:45;;;;;;;8.98;6.68;;;;;;;-140.79;100.00;63287.88;5040773;28;20064;-53
2021/12/06 06:36:11;;;;;;;9.80;6.45;;;;;;;-140.79;100.00;63287.88;5041551;28;20025;-53
2021/12/06 06:38:37;;;;;;;9.52;6.40;;;;;;;-140.79;100.00;63287.88;5042128;28;20036;-55
2021/12/06 06:41:03;;;;;;;7.60;5.63;;;;;;;-140.79;100.00;63287.88;5042661;28;20507;-53
2021/12/06 06:43:29;;;;;;;9.75;6.25;;;;;;;-140.79;100.00;63287.88;5041748;28;20117;-55
2021/12/06 06:45:54;;;;;;;11.93;6.22;;;;;;;-140.79;100.00;63287.88;5042407;28;20519;-53
2021/12/06 06:48:19;;;;;;;10.25;6.32;;;;;;;-140.79;100.00;63287.88;5040194;28;20029;-53
2021/12/06 06:50:45;;;;;;;10.30;5.82;;;;;;;-140.79;100.00;63287.88;5042696;28;20094;-53
2021/12/06 06:53:10;;;;;;;9.98;6.05;;;;;;;-140.79;100.00;63287.88;5042409;28;20033;-54
2021/12/06 06:55:36;;;;;;;15.13;6.47;;;;;;;-140.79;100.00;63287.88;5043100;28;20037;-55
2021/12/06 06:58:01;;;;;;;14.52;6.85;;;;;;;-140.79;100.00;63287.88;5042368;28;20087;-55
2021/12/06 07:00:33;;;;;;;16.67;6.90;;;;;;;-140.79;100.00;63287.88;5042319;28;20431;-55
2021/12/06 07:02:58;;;;;;;13.77;6.30;;;;;;;-140.79;100.00;63287.88;5042388;28;20051;-54
2021/12/06 07:05:24;;;;;;;15.18;6.40;;;;;;;-140.79;100.00;63287.88;5041051;28;20032;-54
2021/12/06 07:07:49;;;;;;;13.48;6.70;;;;;;;-140.79;100.00;63287.88;5003956;28;20051;-54
2021/12/06 07:10:15;;;;;;;11.50;5.85;;;;;;;-140.79;100.00;63287.88;5045728;28;20423;-54
2021/12/06 07:12:45;;;;;;;10.30;6.50;;;;;;;-140.79;100.00;63287.88;5038874;28;20036;-55
2021/12/06 07:15:12;;;;;;;10.20;6.10;;;;;;;-140.79;100.00;63287.88;5041360;28;20128;-55
2021/12/06 07:17:38;;;;;;;11.00;6.05;;;;;;;-140.79;100.00;63287.88;5043159;28;20029;-53
2021/12/06 07:20:05;;;;;;;13.18;6.63;;;;;;;-140.79;100.00;63287.88;5045838;28;20518;-54
2021/12/06 07:22:30;;;;;;;14.25;6.28;;;;;;;-140.79;100.00;63287.88;5043924;28;20447;-52
2021/12/06 07:24:56;;;;;;;15.85;6.50;;;;;;;-140.79;100.00;63287.88;5040112;28;20033;-54
2021/12/06 07:27:21;;;;;;;12.20;5.85;;;;;;;-140.79;100.00;63287.88;5041281;28;20040;-53
2021/12/06 07:29:46;;;;;;;11.75;5.82;;;;;;;-140.79;100.00;63287.88;5036987;28;20033;-52
2021/12/06 07:32:12;;;;;;;11.77;6.32;;;;;;;-140.79;100.00;63287.88;5028081;28;20060;-51
2021/12/06 07:34:37;;;;;;;18.17;6.97;;;;;;;-140.79;100.00;63287.88;5026518;28;20119;-51
2021/12/06 07:37:03;;;;;;;16.08;6.57;;;;;;;-140.79;100.00;63287.88;5027598;28;20021;-51
2021/12/06 07:39:29;;;;;;;14.75;6.47;;;;;;;-140.79;100.00;63287.88;5027102;28;20099;-51
2021/12/06 07:41:54;;;;;;;12.25;6.30;;;;;;;-140.79;100.00;63287.88;5034512;28;20029;-53
2021/12/06 07:44:20;;;;;;;12.98;6.30;;;;;;;-140.79;100.00;63287.88;5036864;28;20103;-52
2021/12/06 07:46:46;;;;;;;16.65;6.95;;;;;;;-140.79;100.00;63287.88;5028858;28;20389;-53
2021/12/06 07:49:12;;;;;;;15.00;6.22;;;;;;;-140.79;100.00;63287.88;5033313;28;20053;-54
2021/12/06 07:51:37;;;;;;;13.55;5.82;;;;;;;-140.79;100.00;63287.88;5028723;28;20045;-53
2021/12/06 07:54:03;;;;;;;12.13;5.68;;;;;;;-140.79;100.00;63287.88;5030406;28;20025;-53
2021/12/06 07:56:28;;;;;;;14.30;6.50;;;;;;;-140.79;100.00;63287.88;5030420;28;20025;-52
2021/12/06 07:58:54;;;;;;;14.23;6.18;;;;;;;-140.79;100.00;63287.88;5028934;28;20037;-53
2021/12/06 08:01:19;;;;;;;13.45;6.15;;;;;;;-140.79;100.00;63287.88;5029013;28;20057;-53
2021/12/06 08:03:45;;;;;;;14.60;6.93;;;;;;;-140.79;100.00;63287.88;5029711;28;20120;-53
2021/12/06 08:06:10;;;;;;;17.88;6.20;;;;;;;-140.79;100.00;63287.88;5044085;28;20044;-53
2021/12/06 08:08:38;;;;;;;14.15;6.15;;;;;;;-140.79;100.00;63287.88;5029406;28;20040;-53
2021/12/06 08:11:13;;;;;;;14.57;6.40;;;;;;;-140.79;100.00;63287.88;5028794;28;20038;-53
2021/12/06 08:13:40;;;;;;;13.60;5.53;;;;;;;-140.79;100.00;63287.88;5028827;28;20033;-53
2021/12/06 08:16:08;;;;;;;10.90;6.00;;;;;;;-140.79;100.00;63287.88;5042316;28;20423;-54
2021/12/06 08:18:33;;;;;;;18.50;6.05;;;;;;;-140.79;100.00;63287.88;5028637;28;20144;-53
2021/12/06 08:21:00;;;;;;;16.92;6.13;;;;;;;-140.79;100.00;63287.88;5028649;28;20092;-52
2021/12/06 08:23:27;;;;;;;14.15;5.72;;;;;;;-140.79;100.00;63287.88;5028284;28;20096;-54
2021/12/06 08:25:53;;;;;;;13.13;6.45;;;;;;;-140.79;100.00;63287.88;5025650;28;20508;-53
2021/12/06 08:28:18;;;;;;;13.98;5.68;;;;;;;-140.79;100.00;63287.88;5026767;28;20115;-52
2021/12/06 08:30:44;;;;;;;15.85;6.20;;;;;;;-140.79;100.00;63287.88;5027128;28;20041;-53
2021/12/06 08:33:10;;;;;;;17.90;5.95;;;;;;;-140.79;100.00;63287.88;5009230;28;20037;-52
2021/12/06 08:35:37;;;;;;;16.65;6.10;;;;;;;-140.79;100.00;63287.88;5026978;28;20033;-53
2021/12/06 08:38:03;;;;;;;13.45;6.18;;;;;;;-140.79;100.00;63287.88;5030893;28;20033;-52
2021/12/06 08:40:28;;;;;;;15.60;6.38;;;;;;;-140.79;100.00;63287.88;5026826;28;20064;-52
2021/12/06 08:42:54;;;;;;;12.50;5.53;;;;;;;-140.79;100.00;63287.88;5025752;28;20041;-53
2021/12/06 08:45:20;;;;;;;17.75;6.40;;;;;;;-140.79;100.00;63287.88;5026137;28;20033;-54
2021/12/06 08:47:45;;;;;;;13.02;5.57;;;;;;;-140.79;100.00;63287.88;5025950;28;20125;-52
2021/12/06 08:50:15;;;;;;;14.70;5.88;;;;;;;-140.79;100.00;63287.88;5026142;28;20033;-51
2021/12/06 08:52:40;;;;;;;17.40;5.80;;;;;;;-140.79;100.00;63287.88;5025712;28;20507;-52
2021/12/06 08:55:06;;;;;;;13.93;5.72;;;;;;;-140.79;100.00;63287.88;5025737;28;20034;-52
2021/12/06 08:57:32;;;;;;;11.95;6.07;;;;;;;-140.79;100.00;63287.88;5025704;28;20064;-52
2021/12/06 08:59:57;;;;;;;15.65;6.15;;;;;;;-140.79;100.00;63287.88;5025927;28;20492;-52
2021/12/06 09:02:23;;;;;;;13.73;5.70;;;;;;;-140.79;100.00;63287.88;5026325;28;20562;-52
2021/12/06 09:04:48;;;;;;;14.50;6.05;;;;;;;-140.79;100.00;63287.88;5025673;28;20056;-52
2021/12/06 09:07:14;;;;;;;13.07;5.75;;;;;;;-140.79;100.00;63287.88;5025620;28;20192;-54
2021/12/06 09:09:48;;;;;;;14.52;6.53;;;;;;;-140.79;100.00;63287.88;5025766;28;20537;-53
2021/12/06 09:12:19;;;;;;;14.35;6.35;;;;;;;-140.79;100.00;63287.88;5025674;28;20064;-53
2021/12/06 09:14:45;;;;;;;13.88;5.85;;;;;;;-140.79;100.00;63287.88;5040307;28;20038;-50
2021/12/06 09:17:10;;;;;;;10.90;5.63;;;;;;;-140.79;100.00;63287.88;5025644;28;20416;-52
2021/12/06 09:19:36;;;;;;;15.65;5.88;;;;;;;-140.79;100.00;63287.88;5025604;28;20026;-54
2021/12/06 09:22:02;;;;;;;11.85;5.90;;;;;;;-140.79;100.00;63287.88;5025615;28;20559;-53
2021/12/06 09:24:28;;;;;;;16.40;5.82;;;;;;;-140.79;100.00;63287.88;5025415;28;20029;-54
2021/12/06 09:26:53;;;;;;;13.90;5.18;;;;;;;-140.79;100.00;63287.88;5040063;28;20378;-53
2021/12/06 09:29:19;;;;;;;13.23;5.25;;;;;;;-140.79;100.00;63287.88;5024986;28;20033;-53
2021/12/06 09:31:45;;;;;;;13.90;5.63;;;;;;;-140.79;100.00;63287.88;5025127;28;20044;-53
2021/12/06 09:34:10;;;;;;;11.32;5.25;;;;;;;-140.79;100.00;63287.88;5025730;28;20090;-53
2021/12/06 09:36:36;;;;;;;12.52;5.68;;;;;;;-140.79;100.00;63287.88;5026790;28;20492;-54
2021/12/06 09:39:04;;;;;;;11.63;5.60;;;;;;;-140.79;100.00;63287.88;5024613;28;20036;-52
2021/12/06 09:41:29;;;;;;;13.32;5.75;;;;;;;-140.79;100.00;63287.88;5024413;28;20052;-53
2021/12/06 09:43:57;;;;;;;12.20;5.88;;;;;;;-140.79;100.00;63287.88;5026327;28;20057;-51
2021/12/06 09:46:22;;;;;;;12.95;5.30;;;;;;;-140.79;100.00;63287.88;5025251;28;20557;-52
2021/12/06 09:48:48;;;;;;;9.98;5.47;;;;;;;-140.79;100.00;63287.88;5024560;28;20037;-52
2021/12/06 09:51:21;;;;;;;14.32;5.85;;;;;;;-140.79;100.00;63287.88;5026573;28;20052;-53
2021/12/06 09:53:46;;;;;;;13.50;5.95;;;;;;;-140.79;100.00;63287.88;5024009;28;20021;-53
2021/12/06 09:56:15;;;;;;;11.77;5.68;;;;;;;-140.79;100.00;63287.88;5024657;28;20079;-52
2021/12/06 09:58:40;;;;;;;15.30;5.88;;;;;;;-140.79;100.00;63287.88;5023530;28;20029;-53
2021/12/06 10:01:13;;;;;;;11.15;5.50;;;;;;;-140.79;100.00;63287.88;5027064;28;20476;-52
2021/12/06 10:03:38;;;;;;;12.88;5.20;;;;;;;-140.79;100.00;63287.88;5030423;28;20496;-57
2021/12/06 10:06:04;;;;;;;11.10;5.10;;;;;;;-140.79;100.00;63287.88;5031993;28;20178;-51
2021/12/06 10:08:31;;;;;;;10.75;4.80;;;;;;;-140.79;100.00;63287.88;5029347;28;20056;-52
2021/12/06 10:10:57;;;;;;;10.88;5.00;;;;;;;-140.79;100.00;63287.88;5032067;28;20041;-52
2021/12/06 10:13:22;;;;;;;10.38;5.05;;;;;;;-140.79;100.00;63287.88;5035543;28;20024;-54
2021/12/06 10:15:48;;;;;;;9.05;5.30;;;;;;;-140.79;100.00;63287.88;5041794;28;20025;-53
2021/12/06 10:18:16;;;;;;;11.45;5.28;;;;;;;-140.79;100.00;63287.88;5028123;28;20512;-52
2021/12/06 10:20:43;;;;;;;10.85;5.00;;;;;;;-140.79;100.00;63287.88;5044496;28;20037;-52
2021/12/06 10:23:09;;;;;;;10.18;4.97;;;;;;;-140.79;100.00;63287.88;5041294;28;20132;-53
2021/12/06 10:25:40;;;;;;;8.80;4.68;;;;;;;-140.79;100.00;63287.88;5042247;28;20044;-52
2021/12/06 10:28:07;;;;;;;9.07;4.90;;;;;;;-140.79;100.00;63287.88;5042519;28;20048;-52
2021/12/06 10:30:35;;;;;;;11.48;4.75;;;;;;;-140.79;100.00;63287.88;5044450;28;20056;-53
2021/12/06 10:33:09;;;;;;;8.05;4.28;;;;;;;-140.79;100.00;63287.88;5043994;28;20575;-52
2021/12/06 10:35:34;;;;;;;10.52;4.68;;;;;;;-140.79;100.00;63287.88;5044632;28;20037;-52
2021/12/06 10:38:00;;;;;;;9.32;4.60;;;;;;;-140.79;100.00;63287.88;5044211;28;20029;-52
2021/12/06 10:40:36;;;;;;;10.50;4.95;;;;;;;-140.79;100.00;63287.88;5057891;28;20071;-52
2021/12/06 10:43:04;;;;;;;7.03;4.18;;;;;;;-140.79;100.00;63287.88;5043362;28;20057;-53
2021/12/06 10:45:32;;;;;;;9.00;4.57;;;;;;;-140.79;100.00;63287.88;5042395;28;20091;-52
2021/12/06 10:48:12;;;;;;;8.77;4.68;;;;;;;-140.79;100.00;63287.88;5044058;28;20126;-53
2021/12/06 10:50:41;;;;;;;17.35;5.38;;;;;;;-140.79;100.00;63287.88;5032352;28;20065;-52
2021/12/06 10:53:06;;;;;;;13.05;4.88;;;;;;;-140.79;100.00;63287.88;5025197;28;20038;-52
2021/12/06 10:55:32;;;;;;;8.73;4.80;;;;;;;-140.79;100.00;63287.88;5025679;28;20454;-53
2021/12/06 10:58:10;;;;;;;7.07;4.70;;;;;;;-140.79;100.00;63287.88;5039560;28;20066;-52
2021/12/06 11:00:40;;;;;;;9.10;4.18;;;;;;;-140.79;100.00;63287.88;5039683;28;20044;-53
2021/12/06 11:03:36;;;;;;;9.07;4.63;;;;;;;-140.79;100.00;63287.88;5032523;28;20529;-54
2021/12/06 11:06:04;;;;;;;8.88;4.57;;;;;;;-140.79;100.00;63287.88;5044011;28;20032;-52
2021/12/06 11:08:31;;;;;;;12.40;4.70;;;;;;;-140.79;100.00;63287.88;5035251;28;20029;-53
2021/12/06 11:11:02;;;;;;;8.85;4.47;;;;;;;-140.79;100.00;63287.88;5025483;28;20079;-54
2021/12/06 11:13:35;;;;;;;7.47;4.22;;;;;;;-140.79;100.00;63287.88;5033780;28;20040;-54
2021/12/06 11:16:18;;;;;;;8.55;4.60;;;;;;;-140.79;100.00;63287.88;5035343;28;20049;-54